Terminal Aerodrome Forecast
Issued by NWS

Home | Current Version | Previous Version | Text Only | Print | Product List | Glossary On
Versions: 1 2 3 4 5 6 7 8 9 10 11 12 13 14 15 16 17 18 19
000
FTUS43 KDLH 030600 AAA
TAFBRD
TAF AMD
KBRD 030645Z 0307/0406 18011G19KT P6SM OVC050
     FM031300 19008KT P6SM VCTS SCT022 BKN035CB
     FM031500 20010G18KT P6SM SCT030 BKN050
     FM031800 VRB06KT P6SM VCTS SCT022 BKN035CB
     FM040100 VRB04KT 4SM BR SCT015 OVC025=

USA.gov is the U.S. government's official web portal to all federal, state and local government web resources and services.